sensor_id;sensor_type;location;lat;lon;timestamp;P1;durP1;ratioP1;P2;durP2;ratioP2
77111;SDS011;66064;50.226;14.344;2023-04-24T00:00:21;13.07;;;11.95;;
77111;SDS011;66064;50.226;14.344;2023-04-24T00:03:07;9.20;;;8.52;;
77111;SDS011;66064;50.226;14.344;2023-04-24T00:05:33;12.60;;;11.35;;
77111;SDS011;66064;50.226;14.344;2023-04-24T00:07:59;10.93;;;10.15;;
77111;SDS011;66064;50.226;14.344;2023-04-24T00:10:25;10.88;;;10.18;;
77111;SDS011;66064;50.226;14.344;2023-04-24T00:12:51;10.45;;;9.63;;
77111;SDS011;66064;50.226;14.344;2023-04-24T00:15:17;11.77;;;10.88;;
77111;SDS011;66064;50.226;14.344;2023-04-24T00:17:43;11.07;;;10.25;;
77111;SDS011;66064;50.226;14.344;2023-04-24T00:20:09;9.38;;;8.48;;
77111;SDS011;66064;50.226;14.344;2023-04-24T00:22:36;8.23;;;7.43;;
77111;SDS011;66064;50.226;14.344;2023-04-24T00:25:02;9.40;;;8.60;;
77111;SDS011;66064;50.226;14.344;2023-04-24T00:27:28;15.25;;;13.32;;
77111;SDS011;66064;50.226;14.344;2023-04-24T00:29:54;11.95;;;10.85;;
77111;SDS011;66064;50.226;14.344;2023-04-24T00:32:20;15.60;;;12.18;;
77111;SDS011;66064;50.226;14.344;2023-04-24T00:34:46;14.77;;;13.25;;
77111;SDS011;66064;50.226;14.344;2023-04-24T00:37:12;12.15;;;9.52;;
77111;SDS011;66064;50.226;14.344;2023-04-24T00:39:38;12.15;;;11.15;;
77111;SDS011;66064;50.226;14.344;2023-04-24T00:42:04;14.45;;;11.52;;
77111;SDS011;66064;50.226;14.344;2023-04-24T00:44:32;14.40;;;12.57;;
77111;SDS011;66064;50.226;14.344;2023-04-24T00:47:00;13.00;;;10.50;;
77111;SDS011;66064;50.226;14.344;2023-04-24T00:49:27;10.68;;;9.77;;
77111;SDS011;66064;50.226;14.344;2023-04-24T00:51:53;14.27;;;9.25;;
77111;SDS011;66064;50.226;14.344;2023-04-24T00:54:19;9.80;;;9.02;;
77111;SDS011;66064;50.226;14.344;2023-04-24T00:56:45;10.25;;;9.45;;
77111;SDS011;66064;50.226;14.344;2023-04-24T00:59:12;12.32;;;10.80;;
77111;SDS011;66064;50.226;14.344;2023-04-24T01:01:39;11.20;;;10.10;;
77111;SDS011;66064;50.226;14.344;2023-04-24T01:04:08;12.23;;;10.27;;
77111;SDS011;66064;50.226;14.344;2023-04-24T01:06:37;11.20;;;10.02;;
77111;SDS011;66064;50.226;14.344;2023-04-24T01:09:05;11.35;;;8.13;;
77111;SDS011;66064;50.226;14.344;2023-04-24T01:11:35;12.00;;;10.73;;
77111;SDS011;66064;50.226;14.344;2023-04-24T01:14:02;10.32;;;8.70;;
77111;SDS011;66064;50.226;14.344;2023-04-24T01:16:28;11.45;;;10.13;;
77111;SDS011;66064;50.226;14.344;2023-04-24T01:18:54;12.30;;;11.18;;
77111;SDS011;66064;50.226;14.344;2023-04-24T01:21:21;9.00;;;8.20;;
77111;SDS011;66064;50.226;14.344;2023-04-24T01:23:49;9.55;;;8.02;;
77111;SDS011;66064;50.226;14.344;2023-04-24T01:26:16;13.80;;;9.63;;
77111;SDS011;66064;50.226;14.344;2023-04-24T01:28:46;8.68;;;7.97;;
77111;SDS011;66064;50.226;14.344;2023-04-24T01:31:13;10.60;;;9.70;;
77111;SDS011;66064;50.226;14.344;2023-04-24T01:33:41;10.68;;;9.65;;
77111;SDS011;66064;50.226;14.344;2023-04-24T01:36:08;13.95;;;11.95;;
77111;SDS011;66064;50.226;14.344;2023-04-24T01:38:36;10.65;;;9.23;;
77111;SDS011;66064;50.226;14.344;2023-04-24T01:41:02;11.05;;;9.00;;
77111;SDS011;66064;50.226;14.344;2023-04-24T01:43:28;12.23;;;11.07;;
77111;SDS011;66064;50.226;14.344;2023-04-24T01:45:54;15.13;;;12.27;;
77111;SDS011;66064;50.226;14.344;2023-04-24T01:48:20;10.45;;;9.65;;
77111;SDS011;66064;50.226;14.344;2023-04-24T01:50:46;10.52;;;9.43;;
77111;SDS011;66064;50.226;14.344;2023-04-24T01:53:12;12.80;;;11.73;;
77111;SDS011;66064;50.226;14.344;2023-04-24T01:55:38;9.32;;;8.52;;
77111;SDS011;66064;50.226;14.344;2023-04-24T01:58:04;8.70;;;5.78;;
77111;SDS011;66064;50.226;14.344;2023-04-24T02:00:30;6.82;;;6.20;;
77111;SDS011;66064;50.226;14.344;2023-04-24T02:02:57;7.63;;;7.03;;
77111;SDS011;66064;50.226;14.344;2023-04-24T02:05:22;7.75;;;7.15;;
77111;SDS011;66064;50.226;14.344;2023-04-24T02:07:49;5.35;;;5.05;;
77111;SDS011;66064;50.226;14.344;2023-04-24T02:10:14;7.22;;;6.82;;
77111;SDS011;66064;50.226;14.344;2023-04-24T02:12:41;7.18;;;6.05;;
77111;SDS011;66064;50.226;14.344;2023-04-24T02:15:07;8.38;;;7.57;;
77111;SDS011;66064;50.226;14.344;2023-04-24T02:17:33;9.68;;;6.82;;
77111;SDS011;66064;50.226;14.344;2023-04-24T02:19:59;7.68;;;6.68;;
77111;SDS011;66064;50.226;14.344;2023-04-24T02:22:25;7.68;;;6.15;;
77111;SDS011;66064;50.226;14.344;2023-04-24T02:24:51;8.35;;;7.55;;
77111;SDS011;66064;50.226;14.344;2023-04-24T02:27:17;6.55;;;6.03;;
77111;SDS011;66064;50.226;14.344;2023-04-24T02:29:43;5.65;;;5.05;;
77111;SDS011;66064;50.226;14.344;2023-04-24T02:32:09;6.28;;;5.82;;
77111;SDS011;66064;50.226;14.344;2023-04-24T02:34:37;7.18;;;6.60;;
77111;SDS011;66064;50.226;14.344;2023-04-24T02:37:03;7.07;;;6.40;;
77111;SDS011;66064;50.226;14.344;2023-04-24T02:39:29;5.32;;;4.88;;
77111;SDS011;66064;50.226;14.344;2023-04-24T02:41:55;5.60;;;5.30;;
77111;SDS011;66064;50.226;14.344;2023-04-24T02:44:21;4.82;;;4.53;;
77111;SDS011;66064;50.226;14.344;2023-04-24T02:46:48;5.13;;;4.82;;
77111;SDS011;66064;50.226;14.344;2023-04-24T02:49:14;6.20;;;5.72;;
77111;SDS011;66064;50.226;14.344;2023-04-24T02:51:40;8.13;;;6.53;;
77111;SDS011;66064;50.226;14.344;2023-04-24T02:54:07;12.05;;;9.85;;
77111;SDS011;66064;50.226;14.344;2023-04-24T02:56:35;7.32;;;6.72;;
77111;SDS011;66064;50.226;14.344;2023-04-24T02:59:01;7.10;;;5.65;;
77111;SDS011;66064;50.226;14.344;2023-04-24T03:01:28;7.72;;;7.05;;
77111;SDS011;66064;50.226;14.344;2023-04-24T03:03:55;5.38;;;5.03;;
77111;SDS011;66064;50.226;14.344;2023-04-24T03:06:21;6.88;;;6.20;;
77111;SDS011;66064;50.226;14.344;2023-04-24T03:08:46;6.10;;;5.70;;
77111;SDS011;66064;50.226;14.344;2023-04-24T03:11:13;6.13;;;5.53;;
77111;SDS011;66064;50.226;14.344;2023-04-24T03:13:38;5.32;;;4.93;;
77111;SDS011;66064;50.226;14.344;2023-04-24T03:16:05;6.22;;;4.20;;
77111;SDS011;66064;50.226;14.344;2023-04-24T03:18:31;5.32;;;4.90;;
77111;SDS011;66064;50.226;14.344;2023-04-24T03:20:57;4.95;;;4.65;;
77111;SDS011;66064;50.226;14.344;2023-04-24T03:23:23;6.35;;;5.85;;
77111;SDS011;66064;50.226;14.344;2023-04-24T03:25:49;5.70;;;5.32;;
77111;SDS011;66064;50.226;14.344;2023-04-24T03:28:14;6.55;;;5.20;;
77111;SDS011;66064;50.226;14.344;2023-04-24T03:30:41;7.43;;;6.15;;
77111;SDS011;66064;50.226;14.344;2023-04-24T03:33:06;6.35;;;5.95;;
77111;SDS011;66064;50.226;14.344;2023-04-24T03:35:33;7.28;;;6.68;;
77111;SDS011;66064;50.226;14.344;2023-04-24T03:37:59;5.65;;;5.15;;
77111;SDS011;66064;50.226;14.344;2023-04-24T03:40:25;6.80;;;5.90;;
77111;SDS011;66064;50.226;14.344;2023-04-24T03:42:50;6.80;;;5.88;;
77111;SDS011;66064;50.226;14.344;2023-04-24T03:45:17;7.40;;;6.35;;
77111;SDS011;66064;50.226;14.344;2023-04-24T03:47:42;6.65;;;6.13;;
77111;SDS011;66064;50.226;14.344;2023-04-24T03:50:09;7.20;;;6.47;;
77111;SDS011;66064;50.226;14.344;2023-04-24T03:52:35;8.40;;;7.07;;
77111;SDS011;66064;50.226;14.344;2023-04-24T03:55:01;8.07;;;7.35;;
77111;SDS011;66064;50.226;14.344;2023-04-24T03:57:27;9.10;;;8.20;;
77111;SDS011;66064;50.226;14.344;2023-04-24T03:59:53;8.20;;;7.45;;
77111;SDS011;66064;50.226;14.344;2023-04-24T04:02:19;7.60;;;6.90;;
77111;SDS011;66064;50.226;14.344;2023-04-24T04:04:45;13.75;;;8.43;;
77111;SDS011;66064;50.226;14.344;2023-04-24T04:07:10;10.38;;;9.05;;
77111;SDS011;66064;50.226;14.344;2023-04-24T04:09:38;12.00;;;10.70;;
77111;SDS011;66064;50.226;14.344;2023-04-24T04:12:04;8.93;;;7.82;;
77111;SDS011;66064;50.226;14.344;2023-04-24T04:14:30;16.88;;;8.95;;
77111;SDS011;66064;50.226;14.344;2023-04-24T04:16:56;11.45;;;8.68;;
77111;SDS011;66064;50.226;14.344;2023-04-24T04:19:22;10.18;;;9.10;;
77111;SDS011;66064;50.226;14.344;2023-04-24T04:21:48;9.75;;;8.90;;
77111;SDS011;66064;50.226;14.344;2023-04-24T04:24:19;10.65;;;9.57;;
77111;SDS011;66064;50.226;14.344;2023-04-24T04:26:46;8.77;;;7.90;;
77111;SDS011;66064;50.226;14.344;2023-04-24T04:29:13;8.35;;;7.55;;
77111;SDS011;66064;50.226;14.344;2023-04-24T04:31:39;8.05;;;7.32;;
77111;SDS011;66064;50.226;14.344;2023-04-24T04:34:05;8.32;;;7.55;;
77111;SDS011;66064;50.226;14.344;2023-04-24T04:36:32;12.63;;;7.70;;
77111;SDS011;66064;50.226;14.344;2023-04-24T04:39:02;8.63;;;7.63;;
77111;SDS011;66064;50.226;14.344;2023-04-24T04:41:29;8.70;;;6.88;;
77111;SDS011;66064;50.226;14.344;2023-04-24T04:43:55;7.40;;;6.80;;
77111;SDS011;66064;50.226;14.344;2023-04-24T04:46:24;8.65;;;7.82;;
77111;SDS011;66064;50.226;14.344;2023-04-24T04:48:52;8.52;;;7.72;;
77111;SDS011;66064;50.226;14.344;2023-04-24T04:51:19;8.73;;;8.02;;
77111;SDS011;66064;50.226;14.344;2023-04-24T04:53:46;8.02;;;7.32;;
77111;SDS011;66064;50.226;14.344;2023-04-24T04:56:12;8.57;;;7.85;;
77111;SDS011;66064;50.226;14.344;2023-04-24T04:58:38;5.22;;;4.93;;
77111;SDS011;66064;50.226;14.344;2023-04-24T05:01:04;8.18;;;7.40;;
77111;SDS011;66064;50.226;14.344;2023-04-24T05:03:30;5.63;;;5.22;;
77111;SDS011;66064;50.226;14.344;2023-04-24T05:05:57;6.57;;;5.80;;
77111;SDS011;66064;50.226;14.344;2023-04-24T05:08:23;7.20;;;6.50;;
77111;SDS011;66064;50.226;14.344;2023-04-24T05:10:49;7.43;;;6.72;;
77111;SDS011;66064;50.226;14.344;2023-04-24T05:13:15;9.05;;;6.00;;
77111;SDS011;66064;50.226;14.344;2023-04-24T05:15:41;7.70;;;6.80;;
77111;SDS011;66064;50.226;14.344;2023-04-24T05:18:07;5.70;;;5.15;;
77111;SDS011;66064;50.226;14.344;2023-04-24T05:20:33;6.65;;;4.78;;
77111;SDS011;66064;50.226;14.344;2023-04-24T05:22:59;11.07;;;7.15;;
77111;SDS011;66064;50.226;14.344;2023-04-24T05:25:25;9.50;;;8.50;;
77111;SDS011;66064;50.226;14.344;2023-04-24T05:27:51;13.60;;;9.48;;
77111;SDS011;66064;50.226;14.344;2023-04-24T05:30:18;9.68;;;8.82;;
77111;SDS011;66064;50.226;14.344;2023-04-24T05:32:45;8.63;;;7.82;;
77111;SDS011;66064;50.226;14.344;2023-04-24T05:35:11;11.38;;;10.48;;
77111;SDS011;66064;50.226;14.344;2023-04-24T05:37:37;10.25;;;9.23;;
77111;SDS011;66064;50.226;14.344;2023-04-24T05:40:03;9.02;;;8.20;;
77111;SDS011;66064;50.226;14.344;2023-04-24T05:42:31;10.43;;;8.63;;
77111;SDS011;66064;50.226;14.344;2023-04-24T05:44:57;8.80;;;7.90;;
77111;SDS011;66064;50.226;14.344;2023-04-24T05:47:24;8.65;;;7.40;;
77111;SDS011;66064;50.226;14.344;2023-04-24T05:49:51;9.40;;;7.65;;
77111;SDS011;66064;50.226;14.344;2023-04-24T05:52:17;5.93;;;5.43;;
77111;SDS011;66064;50.226;14.344;2023-04-24T05:54:43;6.82;;;6.10;;
77111;SDS011;66064;50.226;14.344;2023-04-24T05:57:09;7.55;;;5.70;;
77111;SDS011;66064;50.226;14.344;2023-04-24T05:59:36;7.03;;;5.55;;
77111;SDS011;66064;50.226;14.344;2023-04-24T06:02:06;8.27;;;6.90;;
77111;SDS011;66064;50.226;14.344;2023-04-24T06:04:32;8.50;;;7.70;;
77111;SDS011;66064;50.226;14.344;2023-04-24T06:06:59;8.32;;;7.63;;
77111;SDS011;66064;50.226;14.344;2023-04-24T06:09:25;6.43;;;5.82;;
77111;SDS011;66064;50.226;14.344;2023-04-24T06:11:51;6.35;;;5.68;;
77111;SDS011;66064;50.226;14.344;2023-04-24T06:14:21;6.03;;;5.47;;
77111;SDS011;66064;50.226;14.344;2023-04-24T06:16:47;5.85;;;5.45;;
77111;SDS011;66064;50.226;14.344;2023-04-24T06:19:13;6.38;;;5.78;;
77111;SDS011;66064;50.226;14.344;2023-04-24T06:21:39;4.97;;;4.68;;
77111;SDS011;66064;50.226;14.344;2023-04-24T06:24:05;7.03;;;6.40;;
77111;SDS011;66064;50.226;14.344;2023-04-24T06:26:32;5.88;;;5.32;;
77111;SDS011;66064;50.226;14.344;2023-04-24T06:28:58;5.97;;;5.53;;
77111;SDS011;66064;50.226;14.344;2023-04-24T06:31:25;5.40;;;4.90;;
77111;SDS011;66064;50.226;14.344;2023-04-24T06:33:51;6.43;;;5.88;;
77111;SDS011;66064;50.226;14.344;2023-04-24T06:36:17;5.50;;;5.00;;
77111;SDS011;66064;50.226;14.344;2023-04-24T06:38:43;4.57;;;4.18;;
77111;SDS011;66064;50.226;14.344;2023-04-24T06:41:09;4.70;;;4.30;;
77111;SDS011;66064;50.226;14.344;2023-04-24T06:43:35;4.88;;;4.57;;
77111;SDS011;66064;50.226;14.344;2023-04-24T06:46:02;5.00;;;4.63;;
77111;SDS011;66064;50.226;14.344;2023-04-24T06:48:28;4.85;;;4.47;;
77111;SDS011;66064;50.226;14.344;2023-04-24T06:50:55;5.38;;;4.88;;
77111;SDS011;66064;50.226;14.344;2023-04-24T06:53:20;7.20;;;6.70;;
77111;SDS011;66064;50.226;14.344;2023-04-24T06:55:47;6.15;;;5.75;;
77111;SDS011;66064;50.226;14.344;2023-04-24T06:58:12;5.60;;;4.80;;
77111;SDS011;66064;50.226;14.344;2023-04-24T07:00:39;6.82;;;6.22;;
77111;SDS011;66064;50.226;14.344;2023-04-24T07:03:05;6.00;;;5.53;;
77111;SDS011;66064;50.226;14.344;2023-04-24T07:05:31;5.00;;;4.60;;
77111;SDS011;66064;50.226;14.344;2023-04-24T07:08:00;5.88;;;5.47;;
77111;SDS011;66064;50.226;14.344;2023-04-24T07:10:27;5.97;;;5.57;;
77111;SDS011;66064;50.226;14.344;2023-04-24T07:12:54;4.82;;;4.43;;
77111;SDS011;66064;50.226;14.344;2023-04-24T07:15:22;4.65;;;4.35;;
77111;SDS011;66064;50.226;14.344;2023-04-24T07:17:49;4.97;;;4.57;;
77111;SDS011;66064;50.226;14.344;2023-04-24T07:20:15;5.75;;;4.80;;
77111;SDS011;66064;50.226;14.344;2023-04-24T07:22:42;5.28;;;4.78;;
77111;SDS011;66064;50.226;14.344;2023-04-24T07:25:09;5.10;;;4.70;;
77111;SDS011;66064;50.226;14.344;2023-04-24T07:27:35;4.68;;;4.38;;
77111;SDS011;66064;50.226;14.344;2023-04-24T07:30:02;5.25;;;4.75;;
77111;SDS011;66064;50.226;14.344;2023-04-24T07:32:29;5.15;;;4.70;;
77111;SDS011;66064;50.226;14.344;2023-04-24T07:34:55;4.35;;;4.03;;
77111;SDS011;66064;50.226;14.344;2023-04-24T07:37:22;5.18;;;4.70;;
77111;SDS011;66064;50.226;14.344;2023-04-24T07:39:48;5.30;;;4.90;;
77111;SDS011;66064;50.226;14.344;2023-04-24T07:42:14;4.70;;;4.30;;
77111;SDS011;66064;50.226;14.344;2023-04-24T07:44:40;5.07;;;4.78;;
77111;SDS011;66064;50.226;14.344;2023-04-24T07:47:06;6.18;;;5.75;;
77111;SDS011;66064;50.226;14.344;2023-04-24T07:49:33;4.95;;;4.53;;
77111;SDS011;66064;50.226;14.344;2023-04-24T07:52:00;4.60;;;4.28;;
77111;SDS011;66064;50.226;14.344;2023-04-24T07:54:28;5.97;;;5.45;;
77111;SDS011;66064;50.226;14.344;2023-04-24T07:56:55;5.35;;;4.97;;
77111;SDS011;66064;50.226;14.344;2023-04-24T07:59:22;4.03;;;3.72;;
77111;SDS011;66064;50.226;14.344;2023-04-24T08:01:48;6.90;;;5.57;;
77111;SDS011;66064;50.226;14.344;2023-04-24T08:04:14;5.75;;;5.00;;
77111;SDS011;66064;50.226;14.344;2023-04-24T08:06:40;4.85;;;4.45;;
77111;SDS011;66064;50.226;14.344;2023-04-24T08:09:06;4.90;;;4.38;;
77111;SDS011;66064;50.226;14.344;2023-04-24T08:11:32;5.05;;;4.63;;
77111;SDS011;66064;50.226;14.344;2023-04-24T08:13:58;5.07;;;4.68;;
77111;SDS011;66064;50.226;14.344;2023-04-24T08:16:24;8.95;;;5.40;;
77111;SDS011;66064;50.226;14.344;2023-04-24T08:18:50;5.60;;;4.53;;
77111;SDS011;66064;50.226;14.344;2023-04-24T08:21:17;6.20;;;5.65;;
77111;SDS011;66064;50.226;14.344;2023-04-24T08:23:44;5.70;;;5.20;;
77111;SDS011;66064;50.226;14.344;2023-04-24T08:26:11;8.15;;;6.82;;
77111;SDS011;66064;50.226;14.344;2023-04-24T08:28:38;11.50;;;7.10;;
77111;SDS011;66064;50.226;14.344;2023-04-24T08:31:04;7.13;;;6.18;;
77111;SDS011;66064;50.226;14.344;2023-04-24T08:33:31;9.52;;;7.25;;
77111;SDS011;66064;50.226;14.344;2023-04-24T08:36:03;11.45;;;6.85;;
77111;SDS011;66064;50.226;14.344;2023-04-24T08:38:30;6.00;;;5.28;;
77111;SDS011;66064;50.226;14.344;2023-04-24T08:41:00;4.90;;;4.25;;
77111;SDS011;66064;50.226;14.344;2023-04-24T08:43:27;5.20;;;4.80;;
77111;SDS011;66064;50.226;14.344;2023-04-24T08:45:55;5.28;;;4.78;;
77111;SDS011;66064;50.226;14.344;2023-04-24T08:48:22;6.05;;;5.55;;
77111;SDS011;66064;50.226;14.344;2023-04-24T08:50:50;4.00;;;3.70;;
77111;SDS011;66064;50.226;14.344;2023-04-24T08:53:17;4.68;;;4.28;;
77111;SDS011;66064;50.226;14.344;2023-04-24T08:55:44;6.68;;;4.45;;
77111;SDS011;66064;50.226;14.344;2023-04-24T08:58:13;3.92;;;3.63;;
77111;SDS011;66064;50.226;14.344;2023-04-24T09:00:39;4.72;;;4.40;;
77111;SDS011;66064;50.226;14.344;2023-04-24T09:03:09;4.63;;;4.28;;
77111;SDS011;66064;50.226;14.344;2023-04-24T09:05:36;5.82;;;5.25;;
77111;SDS011;66064;50.226;14.344;2023-04-24T09:08:02;5.55;;;5.05;;
77111;SDS011;66064;50.226;14.344;2023-04-24T09:10:30;5.38;;;4.97;;
77111;SDS011;66064;50.226;14.344;2023-04-24T09:12:56;5.93;;;5.35;;
77111;SDS011;66064;50.226;14.344;2023-04-24T09:15:26;7.30;;;5.93;;
77111;SDS011;66064;50.226;14.344;2023-04-24T09:17:53;7.15;;;6.45;;
77111;SDS011;66064;50.226;14.344;2023-04-24T09:20:19;5.05;;;4.72;;
77111;SDS011;66064;50.226;14.344;2023-04-24T09:22:46;6.32;;;4.43;;
77111;SDS011;66064;50.226;14.344;2023-04-24T09:25:12;4.53;;;4.13;;
77111;SDS011;66064;50.226;14.344;2023-04-24T09:27:42;6.45;;;5.85;;
77111;SDS011;66064;50.226;14.344;2023-04-24T09:30:10;5.18;;;4.75;;
77111;SDS011;66064;50.226;14.344;2023-04-24T09:32:36;5.13;;;4.47;;
77111;SDS011;66064;50.226;14.344;2023-04-24T09:35:12;7.35;;;4.57;;
77111;SDS011;66064;50.226;14.344;2023-04-24T09:37:41;3.00;;;2.80;;
77111;SDS011;66064;50.226;14.344;2023-04-24T09:40:12;5.75;;;5.10;;
77111;SDS011;66064;50.226;14.344;2023-04-24T09:42:43;4.28;;;3.95;;
77111;SDS011;66064;50.226;14.344;2023-04-24T09:45:21;4.13;;;3.80;;
77111;SDS011;66064;50.226;14.344;2023-04-24T09:47:51;4.47;;;4.07;;
77111;SDS011;66064;50.226;14.344;2023-04-24T09:50:19;4.65;;;4.20;;
77111;SDS011;66064;50.226;14.344;2023-04-24T09:52:46;4.93;;;4.53;;
77111;SDS011;66064;50.226;14.344;2023-04-24T09:55:21;4.18;;;3.60;;
77111;SDS011;66064;50.226;14.344;2023-04-24T09:57:54;5.75;;;4.20;;
77111;SDS011;66064;50.226;14.344;2023-04-24T10:00:22;4.45;;;4.05;;
77111;SDS011;66064;50.226;14.344;2023-04-24T10:02:53;4.35;;;3.95;;
77111;SDS011;66064;50.226;14.344;2023-04-24T10:05:31;3.60;;;3.30;;
77111;SDS011;66064;50.226;14.344;2023-04-24T10:08:05;4.22;;;3.85;;
77111;SDS011;66064;50.226;14.344;2023-04-24T10:10:33;3.40;;;3.05;;
77111;SDS011;66064;50.226;14.344;2023-04-24T10:13:01;3.22;;;2.92;;
77111;SDS011;66064;50.226;14.344;2023-04-24T10:15:27;3.25;;;2.92;;
77111;SDS011;66064;50.226;14.344;2023-04-24T10:17:53;2.55;;;2.22;;
77111;SDS011;66064;50.226;14.344;2023-04-24T10:20:23;2.50;;;2.30;;
77111;SDS011;66064;50.226;14.344;2023-04-24T10:22:57;3.65;;;2.95;;
77111;SDS011;66064;50.226;14.344;2023-04-24T10:25:25;2.50;;;2.10;;
77111;SDS011;66064;50.226;14.344;2023-04-24T10:27:53;2.95;;;2.33;;
77111;SDS011;66064;50.226;14.344;2023-04-24T10:30:28;4.18;;;1.83;;
77111;SDS011;66064;50.226;14.344;2023-04-24T10:32:56;2.25;;;1.73;;
77111;SDS011;66064;50.226;14.344;2023-04-24T10:35:22;2.20;;;1.80;;
77111;SDS011;66064;50.226;14.344;2023-04-24T10:40:29;3.00;;;2.35;;
77111;SDS011;66064;50.226;14.344;2023-04-24T10:42:57;3.80;;;2.30;;
77111;SDS011;66064;50.226;14.344;2023-04-24T10:45:24;2.10;;;1.90;;
77111;SDS011;66064;50.226;14.344;2023-04-24T10:47:56;2.30;;;2.03;;
77111;SDS011;66064;50.226;14.344;2023-04-24T10:50:22;3.40;;;2.50;;
77111;SDS011;66064;50.226;14.344;2023-04-24T10:52:49;3.03;;;2.65;;
77111;SDS011;66064;50.226;14.344;2023-04-24T10:58:05;3.83;;;2.42;;
77111;SDS011;66064;50.226;14.344;2023-04-24T11:00:31;3.05;;;2.55;;
77111;SDS011;66064;50.226;14.344;2023-04-24T11:02:57;3.58;;;2.58;;
77111;SDS011;66064;50.226;14.344;2023-04-24T11:05:48;3.30;;;3.00;;
77111;SDS011;66064;50.226;14.344;2023-04-24T11:08:39;4.10;;;2.65;;
77111;SDS011;66064;50.226;14.344;2023-04-24T11:11:13;3.15;;;2.28;;
77111;SDS011;66064;50.226;14.344;2023-04-24T11:16:20;2.47;;;2.25;;
77111;SDS011;66064;50.226;14.344;2023-04-24T11:18:52;2.42;;;2.05;;
77111;SDS011;66064;50.226;14.344;2023-04-24T11:21:25;1.90;;;1.70;;
77111;SDS011;66064;50.226;14.344;2023-04-24T11:23:57;2.00;;;1.40;;
77111;SDS011;66064;50.226;14.344;2023-04-24T11:26:23;2.20;;;1.88;;
77111;SDS011;66064;50.226;14.344;2023-04-24T11:28:56;2.22;;;2.03;;
77111;SDS011;66064;50.226;14.344;2023-04-24T11:31:39;2.38;;;1.92;;
77111;SDS011;66064;50.226;14.344;2023-04-24T11:34:14;2.88;;;2.30;;
77111;SDS011;66064;50.226;14.344;2023-04-24T11:36:43;4.63;;;2.03;;
77111;SDS011;66064;50.226;14.344;2023-04-24T11:39:11;3.15;;;2.42;;
77111;SDS011;66064;50.226;14.344;2023-04-24T11:41:37;2.58;;;2.38;;
77111;SDS011;66064;50.226;14.344;2023-04-24T11:44:05;3.13;;;2.40;;
77111;SDS011;66064;50.226;14.344;2023-04-24T11:46:32;2.45;;;2.25;;
77111;SDS011;66064;50.226;14.344;2023-04-24T11:48:59;3.10;;;2.25;;
77111;SDS011;66064;50.226;14.344;2023-04-24T11:51:26;3.55;;;2.58;;
77111;SDS011;66064;50.226;14.344;2023-04-24T11:53:56;3.20;;;2.72;;
77111;SDS011;66064;50.226;14.344;2023-04-24T11:56:22;2.75;;;2.55;;
77111;SDS011;66064;50.226;14.344;2023-04-24T11:58:53;2.50;;;2.28;;
77111;SDS011;66064;50.226;14.344;2023-04-24T12:01:21;2.88;;;2.05;;
77111;SDS011;66064;50.226;14.344;2023-04-24T12:03:48;3.15;;;2.42;;
77111;SDS011;66064;50.226;14.344;2023-04-24T12:06:16;2.45;;;2.20;;
77111;SDS011;66064;50.226;14.344;2023-04-24T12:08:45;2.80;;;2.60;;
77111;SDS011;66064;50.226;14.344;2023-04-24T12:11:14;2.65;;;2.45;;
77111;SDS011;66064;50.226;14.344;2023-04-24T12:13:41;3.85;;;2.85;;
77111;SDS011;66064;50.226;14.344;2023-04-24T12:16:07;3.60;;;2.63;;
77111;SDS011;66064;50.226;14.344;2023-04-24T12:18:33;2.90;;;2.60;;
77111;SDS011;66064;50.226;14.344;2023-04-24T12:23:44;2.78;;;2.58;;
77111;SDS011;66064;50.226;14.344;2023-04-24T12:26:17;2.97;;;2.67;;
77111;SDS011;66064;50.226;14.344;2023-04-24T12:28:46;2.47;;;2.28;;
77111;SDS011;66064;50.226;14.344;2023-04-24T12:31:15;2.15;;;1.95;;
77111;SDS011;66064;50.226;14.344;2023-04-24T12:33:41;2.40;;;2.20;;
77111;SDS011;66064;50.226;14.344;2023-04-24T12:36:11;2.72;;;2.22;;
77111;SDS011;66064;50.226;14.344;2023-04-24T12:38:38;2.42;;;2.03;;
77111;SDS011;66064;50.226;14.344;2023-04-24T12:41:12;2.05;;;1.92;;
77111;SDS011;66064;50.226;14.344;2023-04-24T12:43:40;2.50;;;2.10;;
77111;SDS011;66064;50.226;14.344;2023-04-24T12:46:17;3.03;;;2.65;;
77111;SDS011;66064;50.226;14.344;2023-04-24T12:48:43;2.88;;;2.00;;
77111;SDS011;66064;50.226;14.344;2023-04-24T12:51:08;2.80;;;2.53;;
77111;SDS011;66064;50.226;14.344;2023-04-24T12:53:34;2.42;;;2.22;;
77111;SDS011;66064;50.226;14.344;2023-04-24T12:56:00;3.25;;;2.78;;
77111;SDS011;66064;50.226;14.344;2023-04-24T12:58:26;3.05;;;2.67;;
77111;SDS011;66064;50.226;14.344;2023-04-24T13:00:52;3.83;;;3.05;;
77111;SDS011;66064;50.226;14.344;2023-04-24T13:03:18;2.60;;;2.20;;
77111;SDS011;66064;50.226;14.344;2023-04-24T13:05:45;5.75;;;2.28;;
77111;SDS011;66064;50.226;14.344;2023-04-24T13:08:11;2.97;;;2.70;;
77111;SDS011;66064;50.226;14.344;2023-04-24T13:10:38;3.35;;;3.05;;
77111;SDS011;66064;50.226;14.344;2023-04-24T13:13:05;3.13;;;2.30;;
77111;SDS011;66064;50.226;14.344;2023-04-24T13:15:31;2.70;;;2.38;;
77111;SDS011;66064;50.226;14.344;2023-04-24T13:17:57;3.03;;;2.83;;
77111;SDS011;66064;50.226;14.344;2023-04-24T13:20:23;2.65;;;2.40;;
77111;SDS011;66064;50.226;14.344;2023-04-24T13:22:49;2.90;;;2.30;;
77111;SDS011;66064;50.226;14.344;2023-04-24T13:25:15;3.05;;;2.75;;
77111;SDS011;66064;50.226;14.344;2023-04-24T13:27:42;2.20;;;2.00;;
77111;SDS011;66064;50.226;14.344;2023-04-24T13:30:08;2.40;;;2.20;;
77111;SDS011;66064;50.226;14.344;2023-04-24T13:32:34;2.17;;;2.00;;
77111;SDS011;66064;50.226;14.344;2023-04-24T13:35:00;2.58;;;2.38;;
77111;SDS011;66064;50.226;14.344;2023-04-24T13:37:27;2.85;;;2.50;;
77111;SDS011;66064;50.226;14.344;2023-04-24T13:39:53;2.38;;;2.17;;
77111;SDS011;66064;50.226;14.344;2023-04-24T13:42:19;2.72;;;2.53;;
77111;SDS011;66064;50.226;14.344;2023-04-24T13:44:45;2.08;;;1.95;;
77111;SDS011;66064;50.226;14.344;2023-04-24T13:47:12;2.38;;;2.17;;
77111;SDS011;66064;50.226;14.344;2023-04-24T13:49:37;2.35;;;2.15;;
77111;SDS011;66064;50.226;14.344;2023-04-24T13:52:04;2.42;;;2.22;;
77111;SDS011;66064;50.226;14.344;2023-04-24T13:54:29;2.95;;;2.72;;
77111;SDS011;66064;50.226;14.344;2023-04-24T13:56:57;4.97;;;2.47;;
77111;SDS011;66064;50.226;14.344;2023-04-24T13:59:23;2.50;;;2.30;;
77111;SDS011;66064;50.226;14.344;2023-04-24T14:01:49;2.58;;;2.38;;
77111;SDS011;66064;50.226;14.344;2023-04-24T14:04:15;3.33;;;3.03;;
77111;SDS011;66064;50.226;14.344;2023-04-24T14:06:41;2.55;;;2.35;;
77111;SDS011;66064;50.226;14.344;2023-04-24T14:09:07;2.50;;;2.30;;
77111;SDS011;66064;50.226;14.344;2023-04-24T14:11:33;2.70;;;2.50;;
77111;SDS011;66064;50.226;14.344;2023-04-24T14:14:00;2.63;;;2.42;;
77111;SDS011;66064;50.226;14.344;2023-04-24T14:16:26;3.08;;;2.88;;
77111;SDS011;66064;50.226;14.344;2023-04-24T14:18:53;2.63;;;2.42;;
77111;SDS011;66064;50.226;14.344;2023-04-24T14:21:20;3.08;;;2.78;;
77111;SDS011;66064;50.226;14.344;2023-04-24T14:23:46;3.05;;;2.75;;
77111;SDS011;66064;50.226;14.344;2023-04-24T14:26:12;3.35;;;3.05;;
77111;SDS011;66064;50.226;14.344;2023-04-24T14:28:38;3.05;;;2.85;;
77111;SDS011;66064;50.226;14.344;2023-04-24T14:31:04;3.15;;;2.95;;
77111;SDS011;66064;50.226;14.344;2023-04-24T14:33:29;2.85;;;2.65;;
77111;SDS011;66064;50.226;14.344;2023-04-24T14:35:56;2.72;;;2.38;;
77111;SDS011;66064;50.226;14.344;2023-04-24T14:38:22;2.80;;;2.60;;
77111;SDS011;66064;50.226;14.344;2023-04-24T14:40:48;3.05;;;2.85;;